TimeCDT,TemperatureF,Dew PointF,Humidity,Sea Level PressureIn,VisibilityMPH,Wind Direction,Wind SpeedMPH,Gust SpeedMPH,PrecipitationIn,Events,Conditions,WindDirDegrees,DateUTC
12:15 AM,61.7,54.1,76,29.93,10.0,ENE,10.4,-,N/A,,Light Drizzle,60,2014-04-06 05:15:00
12:35 AM,61.9,53.6,74,29.91,10.0,ENE,9.2,-,N/A,,Overcast,60,2014-04-06 05:35:00
12:55 AM,62.1,53.6,74,29.89,10.0,ENE,11.5,16.1,N/A,,Overcast,70,2014-04-06 05:55:00
1:15 AM,62.1,54.5,76,29.89,10.0,ENE,11.5,17.3,N/A,,Overcast,70,2014-04-06 06:15:00
1:35 AM,61.9,54.9,78,29.89,10.0,ENE,9.2,-,N/A,,Overcast,70,2014-04-06 06:35:00
1:55 AM,61.7,56.1,82,29.89,10.0,ENE,11.5,-,N/A,,Overcast,70,2014-04-06 06:55:00
2:15 AM,61.3,57.2,86,29.89,10.0,ENE,9.2,-,N/A,,Overcast,70,2014-04-06 07:15:00
2:35 AM,60.8,58.1,91,29.90,10.0,NE,9.2,-,N/A,,Overcast,50,2014-04-06 07:35:00
2:55 AM,60.8,58.3,91,29.90,10.0,ENE,5.8,-,N/A,,Overcast,60,2014-04-06 07:55:00
3:15 AM,60.4,59.0,95,29.89,7.0,NE,10.4,-,N/A,,Overcast,50,2014-04-06 08:15:00
3:35 AM,60.1,59.0,96,29.89,4.0,NE,6.9,-,N/A,,Overcast,40,2014-04-06 08:35:00
3:55 AM,59.7,58.8,97,29.88,5.0,North,8.1,-,N/A,,Overcast,10,2014-04-06 08:55:00
4:15 AM,58.6,57.2,95,29.88,10.0,North,8.1,-,N/A,,Overcast,10,2014-04-06 09:15:00
4:35 AM,57.7,56.5,96,29.88,7.0,North,12.7,18.4,N/A,,Overcast,10,2014-04-06 09:35:00
4:55 AM,56.8,55.8,96,29.88,7.0,NNE,9.2,-,N/A,Rain,Light Rain,20,2014-04-06 09:55:00
5:15 AM,55.6,54.5,96,29.88,7.0,North,10.4,-,N/A,,Light Drizzle,10,2014-04-06 10:15:00
5:35 AM,55.4,54.5,97,29.88,7.0,NE,6.9,-,N/A,Rain,Light Rain,40,2014-04-06 10:35:00
5:55 AM,54.9,53.6,96,29.88,7.0,NNE,11.5,-,N/A,,Overcast,30,2014-04-06 10:55:00
6:15 AM,54.7,54.0,97,29.87,7.0,NE,13.8,19.6,N/A,,Overcast,40,2014-04-06 11:15:00
6:35 AM,54.9,54.3,98,29.88,5.0,NE,6.9,-,N/A,,Overcast,50,2014-04-06 11:35:00
6:55 AM,54.5,53.6,97,29.87,7.0,NE,11.5,19.6,N/A,,Overcast,50,2014-04-06 11:55:00
7:15 AM,54.7,53.8,97,29.87,10.0,NE,9.2,-,N/A,,Overcast,50,2014-04-06 12:15:00
7:35 AM,54.9,54.0,97,29.87,7.0,NE,6.9,-,N/A,,Overcast,50,2014-04-06 12:35:00
7:55 AM,54.9,54.1,97,29.83,7.0,NE,10.4,-,N/A,,Overcast,50,2014-04-06 12:55:00
8:15 AM,55.0,54.5,98,29.84,5.0,ENE,4.6,9.2,N/A,,Overcast,70,2014-04-06 13:15:00
8:35 AM,55.4,54.9,98,29.82,5.0,ENE,8.1,-,N/A,,Overcast,60,2014-04-06 13:35:00
8:55 AM,56.1,55.4,97,29.82,4.0,East,8.1,-,N/A,,Overcast,80,2014-04-06 13:55:00
9:15 AM,56.5,56.1,99,29.81,4.0,ENE,8.1,-,N/A,,Overcast,70,2014-04-06 14:15:00
9:35 AM,58.3,57.7,98,29.80,5.0,ENE,9.2,-,N/A,,Overcast,70,2014-04-06 14:35:00
9:55 AM,59.2,58.3,97,29.81,7.0,ENE,9.2,-,N/A,,Overcast,70,2014-04-06 14:55:00
10:15 AM,60.1,59.2,97,29.82,7.0,ENE,4.6,-,N/A,,Overcast,70,2014-04-06 15:15:00
10:35 AM,61.9,60.4,95,29.82,7.0,NE,5.8,-,N/A,,Overcast,50,2014-04-06 15:35:00
10:55 AM,61.7,60.4,96,29.81,7.0,NE,5.8,-,N/A,,Overcast,50,2014-04-06 15:55:00
11:15 AM,62.6,61.0,94,29.79,7.0,NE,8.1,-,N/A,,Overcast,50,2014-04-06 16:15:00
11:35 AM,63.7,61.7,93,29.79,5.0,ENE,8.1,-,N/A,,Overcast,70,2014-04-06 16:35:00
11:55 AM,64.0,62.2,94,29.78,5.0,ENE,5.8,-,N/A,,Overcast,60,2014-04-06 16:55:00
12:15 PM,64.8,63.0,94,29.77,5.0,NE,4.6,-,N/A,,Overcast,40,2014-04-06 17:15:00
12:35 PM,65.5,63.5,93,29.76,5.0,NE,4.6,-,N/A,,Overcast,50,2014-04-06 17:35:00
12:55 PM,64.9,62.8,93,29.75,5.0,NE,6.9,-,N/A,,Overcast,40,2014-04-06 17:55:00
1:15 PM,65.5,63.0,92,29.74,5.0,NE,5.8,-,N/A,,Overcast,50,2014-04-06 18:15:00
1:35 PM,66.0,63.3,91,29.72,5.0,ENE,5.8,-,N/A,,Overcast,60,2014-04-06 18:35:00
1:55 PM,66.9,63.9,90,29.71,5.0,NE,4.6,-,N/A,,Overcast,40,2014-04-06 18:55:00
2:15 PM,71.4,66.7,85,29.69,7.0,East,5.8,-,N/A,,Overcast,100,2014-04-06 19:15:00
2:35 PM,74.7,69.1,83,29.67,7.0,SSE,9.2,-,N/A,,Overcast,150,2014-04-06 19:35:00
2:55 PM,76.8,70.5,81,29.67,10.0,South,12.7,18.4,N/A,,Overcast,170,2014-04-06 19:55:00
3:15 PM,76.5,70.5,82,29.66,10.0,South,10.4,17.3,N/A,,Overcast,170,2014-04-06 20:15:00
3:35 PM,76.8,70.9,82,29.65,10.0,South,13.8,19.6,N/A,,Overcast,170,2014-04-06 20:35:00
3:55 PM,77.0,71.1,82,29.65,10.0,South,16.1,24.2,N/A,,Overcast,170,2014-04-06 20:55:00
4:15 PM,75.7,71.2,86,29.64,7.0,South,16.1,21.9,N/A,,Overcast,180,2014-04-06 21:15:00
4:35 PM,75.2,72.1,90,29.63,7.0,South,13.8,20.7,N/A,,Overcast,180,2014-04-06 21:35:00
4:55 PM,74.5,72.0,92,29.64,7.0,South,13.8,-,N/A,,Overcast,170,2014-04-06 21:55:00
5:15 PM,74.5,72.1,92,29.63,5.0,South,13.8,-,N/A,Rain,Rain,180,2014-04-06 22:15:00
5:35 PM,73.6,72.0,95,29.63,5.0,South,11.5,21.9,N/A,,Overcast,180,2014-04-06 22:35:00
5:55 PM,73.2,71.8,95,29.63,5.0,South,12.7,17.3,N/A,,Overcast,180,2014-04-06 22:55:00
6:15 PM,73.0,71.8,96,29.63,5.0,South,12.7,18.4,N/A,,Overcast,180,2014-04-06 23:15:00
6:35 PM,73.4,71.8,95,29.63,5.0,South,11.5,-,N/A,,Overcast,190,2014-04-06 23:35:00
6:55 PM,72.9,71.6,96,29.63,5.0,South,9.2,-,N/A,,Overcast,180,2014-04-06 23:55:00
7:15 PM,72.7,71.6,96,29.63,5.0,South,11.5,16.1,N/A,,Overcast,190,2014-04-07 00:15:00
7:35 PM,72.5,71.4,96,29.63,7.0,SSW,11.5,-,N/A,,Overcast,200,2014-04-07 00:35:00
7:55 PM,72.7,71.6,96,29.63,5.0,South,12.7,18.4,N/A,,Overcast,190,2014-04-07 00:55:00
8:15 PM,72.5,71.6,97,29.64,5.0,SW,9.2,-,N/A,,Overcast,220,2014-04-07 01:15:00
8:35 PM,69.8,68.4,95,29.64,5.0,West,5.8,-,N/A,,Overcast,280,2014-04-07 01:35:00
8:55 PM,67.6,67.1,98,29.65,3.0,WNW,5.8,-,N/A,,Drizzle,290,2014-04-07 01:55:00
9:15 PM,66.4,65.8,98,29.66,2.5,West,6.9,-,N/A,Rain,Light Rain,280,2014-04-07 02:15:00
9:35 PM,64.2,63.7,98,29.68,2.0,WNW,13.8,18.4,0.01,,Overcast,290,2014-04-07 02:35:00
9:55 PM,61.9,61.7,99,29.70,2.5,NW,9.2,-,0.01,,Light Drizzle,320,2014-04-07 02:55:00
10:15 PM,59.9,59.5,99,29.71,4.0,NNW,9.2,-,N/A,,Overcast,330,2014-04-07 03:15:00
10:35 PM,59.4,59.0,99,29.71,3.0,NW,8.1,-,N/A,,Overcast,320,2014-04-07 03:35:00
10:55 PM,59.0,58.5,98,29.70,10.0,NW,10.4,-,N/A,,Overcast,320,2014-04-07 03:55:00
11:15 PM,59.0,58.5,98,29.70,10.0,WNW,10.4,-,N/A,,Overcast,300,2014-04-07 04:15:00
11:35 PM,58.6,58.1,98,29.70,10.0,NW,10.4,-,N/A,,Overcast,310,2014-04-07 04:35:00
11:55 PM,58.5,57.7,97,29.70,10.0,WNW,10.4,-,N/A,,Overcast,300,2014-04-07 04:55:00